sensor_id;sensor_type;location;lat;lon;timestamp;pressure;altitude;pressure_sealevel;temperature;humidity
11856;BME280;5987;53.140;8.904;2023-03-04T00:02:51;102288.63;;;3.87;100.00
11856;BME280;5987;53.140;8.904;2023-03-04T00:05:54;102287.78;;;3.91;100.00
11856;BME280;5987;53.140;8.904;2023-03-04T00:08:58;102285.25;;;3.92;100.00
11856;BME280;5987;53.140;8.904;2023-03-04T00:12:02;102280.06;;;3.94;100.00
11856;BME280;5987;53.140;8.904;2023-03-04T00:15:10;102280.09;;;3.95;100.00
11856;BME280;5987;53.140;8.904;2023-03-04T00:18:14;102270.56;;;3.96;100.00
11856;BME280;5987;53.140;8.904;2023-03-04T00:21:18;102269.72;;;3.99;100.00
11856;BME280;5987;53.140;8.904;2023-03-04T00:24:22;102268.81;;;3.97;100.00
11856;BME280;5987;53.140;8.904;2023-03-04T00:27:26;102273.16;;;3.98;100.00
11856;BME280;5987;53.140;8.904;2023-03-04T00:30:31;102270.59;;;4.01;100.00
11856;BME280;5987;53.140;8.904;2023-03-04T00:33:36;102268.88;;;4.00;100.00
11856;BME280;5987;53.140;8.904;2023-03-04T00:36:39;102264.56;;;4.02;100.00
11856;BME280;5987;53.140;8.904;2023-03-04T00:39:45;102268.00;;;4.01;100.00
11856;BME280;5987;53.140;8.904;2023-03-04T00:42:49;102266.34;;;4.06;100.00
11856;BME280;5987;53.140;8.904;2023-03-04T00:45:54;102264.66;;;4.08;100.00
11856;BME280;5987;53.140;8.904;2023-03-04T00:48:58;102263.75;;;4.06;100.00
11856;BME280;5987;53.140;8.904;2023-03-04T00:52:01;102262.97;;;4.13;100.00
11856;BME280;5987;53.140;8.904;2023-03-04T00:55:07;102253.41;;;4.10;100.00
11856;BME280;5987;53.140;8.904;2023-03-04T00:58:11;102253.47;;;4.14;100.00
11856;BME280;5987;53.140;8.904;2023-03-04T01:01:16;102250.81;;;4.12;100.00
11856;BME280;5987;53.140;8.904;2023-03-04T01:04:20;102250.91;;;4.15;100.00
11856;BME280;5987;53.140;8.904;2023-03-04T01:07:23;102252.59;;;4.13;100.00
11856;BME280;5987;53.140;8.904;2023-03-04T01:10:27;102251.72;;;4.11;100.00
11856;BME280;5987;53.140;8.904;2023-03-04T01:13:31;102246.50;;;4.11;100.00
11856;BME280;5987;53.140;8.904;2023-03-04T01:16:36;102251.69;;;4.08;100.00
11856;BME280;5987;53.140;8.904;2023-03-04T01:19:40;102249.13;;;4.12;100.00
11856;BME280;5987;53.140;8.904;2023-03-04T01:22:44;102240.38;;;4.07;100.00
11856;BME280;5987;53.140;8.904;2023-03-04T01:25:48;102238.63;;;4.06;100.00
11856;BME280;5987;53.140;8.904;2023-03-04T01:28:51;102235.16;;;4.06;100.00
11856;BME280;5987;53.140;8.904;2023-03-04T01:31:56;102231.75;;;4.10;100.00
11856;BME280;5987;53.140;8.904;2023-03-04T01:35:00;102230.09;;;4.15;100.00
11856;BME280;5987;53.140;8.904;2023-03-04T01:38:04;102224.81;;;4.09;100.00
11856;BME280;5987;53.140;8.904;2023-03-04T01:41:08;102221.38;;;4.10;100.00
11856;BME280;5987;53.140;8.904;2023-03-04T01:44:12;102222.16;;;4.06;100.00
11856;BME280;5987;53.140;8.904;2023-03-04T01:47:19;102214.41;;;4.09;100.00
11856;BME280;5987;53.140;8.904;2023-03-04T01:50:30;102211.09;;;4.19;100.00
11856;BME280;5987;53.140;8.904;2023-03-04T01:53:35;102205.81;;;4.16;100.00
11856;BME280;5987;53.140;8.904;2023-03-04T01:56:39;102209.31;;;4.17;100.00
11856;BME280;5987;53.140;8.904;2023-03-04T01:59:44;102204.97;;;4.16;100.00
11856;BME280;5987;53.140;8.904;2023-03-04T02:02:53;102204.94;;;4.12;100.00
11856;BME280;5987;53.140;8.904;2023-03-04T02:05:57;102198.00;;;4.13;100.00
11856;BME280;5987;53.140;8.904;2023-03-04T02:09:02;102196.25;;;4.12;100.00
11856;BME280;5987;53.140;8.904;2023-03-04T02:12:06;102197.13;;;4.11;100.00
11856;BME280;5987;53.140;8.904;2023-03-04T02:15:10;102178.84;;;4.05;100.00
11856;BME280;5987;53.140;8.904;2023-03-04T02:18:19;102190.97;;;4.03;100.00
11856;BME280;5987;53.140;8.904;2023-03-04T02:21:26;102178.00;;;4.06;100.00
11856;BME280;5987;53.140;8.904;2023-03-04T02:24:37;102160.69;;;4.08;100.00
11856;BME280;5987;53.140;8.904;2023-03-04T02:27:43;102169.34;;;4.07;100.00
11856;BME280;5987;53.140;8.904;2023-03-04T02:30:47;102165.84;;;4.05;100.00
11856;BME280;5987;53.140;8.904;2023-03-04T02:33:54;102161.53;;;4.04;100.00
11856;BME280;5987;53.140;8.904;2023-03-04T02:37:00;102153.72;;;4.04;100.00
11856;BME280;5987;53.140;8.904;2023-03-04T02:40:12;102155.44;;;4.05;100.00
11856;BME280;5987;53.140;8.904;2023-03-04T02:43:18;102152.13;;;4.15;100.00
11856;BME280;5987;53.140;8.904;2023-03-04T02:46:22;102143.34;;;4.07;100.00
11856;BME280;5987;53.140;8.904;2023-03-04T02:49:29;102143.31;;;4.04;100.00
11856;BME280;5987;53.140;8.904;2023-03-04T02:52:33;102136.38;;;4.03;100.00
11856;BME280;5987;53.140;8.904;2023-03-04T02:55:37;102139.81;;;4.02;100.00
11856;BME280;5987;53.140;8.904;2023-03-04T02:58:42;102145.94;;;4.05;100.00
11856;BME280;5987;53.140;8.904;2023-03-04T03:01:46;102145.03;;;4.02;100.00
11856;BME280;5987;53.140;8.904;2023-03-04T03:04:49;102141.53;;;4.00;100.00
11856;BME280;5987;53.140;8.904;2023-03-04T03:07:53;102139.78;;;3.97;100.00
11856;BME280;5987;53.140;8.904;2023-03-04T03:10:57;102137.16;;;3.95;100.00
11856;BME280;5987;53.140;8.904;2023-03-04T03:14:02;102136.25;;;3.93;100.00
11856;BME280;5987;53.140;8.904;2023-03-04T03:17:06;102137.97;;;3.91;100.00
11856;BME280;5987;53.140;8.904;2023-03-04T03:20:12;102136.22;;;3.90;100.00
11856;BME280;5987;53.140;8.904;2023-03-04T03:23:16;102126.75;;;3.92;100.00
11856;BME280;5987;53.140;8.904;2023-03-04T03:26:23;102119.84;;;3.96;100.00
11856;BME280;5987;53.140;8.904;2023-03-04T03:29:28;102114.63;;;3.93;100.00
11856;BME280;5987;53.140;8.904;2023-03-04T03:32:31;102124.97;;;3.90;100.00
11856;BME280;5987;53.140;8.904;2023-03-04T03:35:35;102116.31;;;3.91;100.00
11856;BME280;5987;53.140;8.904;2023-03-04T03:38:40;102113.69;;;3.88;100.00
11856;BME280;5987;53.140;8.904;2023-03-04T03:41:45;102112.00;;;3.91;100.00
11856;BME280;5987;53.140;8.904;2023-03-04T03:44:50;102105.06;;;3.90;100.00
11856;BME280;5987;53.140;8.904;2023-03-04T03:47:53;102109.38;;;3.88;100.00
11856;BME280;5987;53.140;8.904;2023-03-04T03:50:57;102111.91;;;3.85;100.00
11856;BME280;5987;53.140;8.904;2023-03-04T03:54:00;102105.88;;;3.86;100.00
11856;BME280;5987;53.140;8.904;2023-03-04T03:57:04;102111.06;;;3.88;100.00
11856;BME280;5987;53.140;8.904;2023-03-04T04:00:11;102109.28;;;3.82;100.00
11856;BME280;5987;53.140;8.904;2023-03-04T04:03:16;102113.56;;;3.77;100.00
11856;BME280;5987;53.140;8.904;2023-03-04T04:06:21;102117.88;;;3.76;100.00
11856;BME280;5987;53.140;8.904;2023-03-04T04:09:24;102107.53;;;3.81;100.00
11856;BME280;5987;53.140;8.904;2023-03-04T04:12:28;102104.88;;;3.76;100.00
11856;BME280;5987;53.140;8.904;2023-03-04T04:15:33;102104.78;;;3.66;100.00
11856;BME280;5987;53.140;8.904;2023-03-04T04:18:38;102100.44;;;3.66;100.00
11856;BME280;5987;53.140;8.904;2023-03-04T04:21:41;102093.50;;;3.67;100.00
11856;BME280;5987;53.140;8.904;2023-03-04T04:24:45;102097.81;;;3.62;100.00
11856;BME280;5987;53.140;8.904;2023-03-04T04:27:50;102091.66;;;3.56;100.00
11856;BME280;5987;53.140;8.904;2023-03-04T04:30:55;102097.81;;;3.63;100.00
11856;BME280;5987;53.140;8.904;2023-03-04T04:33:58;102101.19;;;3.56;100.00
11856;BME280;5987;53.140;8.904;2023-03-04T04:37:02;102095.84;;;3.45;100.00
11856;BME280;5987;53.140;8.904;2023-03-04T04:40:07;102089.75;;;3.44;100.00
11856;BME280;5987;53.140;8.904;2023-03-04T04:43:11;102090.56;;;3.39;100.00
11856;BME280;5987;53.140;8.904;2023-03-04T04:46:16;102099.13;;;3.33;100.00
11856;BME280;5987;53.140;8.904;2023-03-04T04:49:20;102094.78;;;3.29;100.00
11856;BME280;5987;53.140;8.904;2023-03-04T04:52:24;102090.44;;;3.28;100.00
11856;BME280;5987;53.140;8.904;2023-03-04T04:55:28;102096.44;;;3.25;100.00
11856;BME280;5987;53.140;8.904;2023-03-04T04:58:31;102093.88;;;3.27;100.00
11856;BME280;5987;53.140;8.904;2023-03-04T05:01:36;102090.41;;;3.26;100.00
11856;BME280;5987;53.140;8.904;2023-03-04T05:04:40;102099.91;;;3.26;100.00
11856;BME280;5987;53.140;8.904;2023-03-04T05:07:44;102098.25;;;3.30;100.00
11856;BME280;5987;53.140;8.904;2023-03-04T05:10:48;102087.81;;;3.26;100.00
11856;BME280;5987;53.140;8.904;2023-03-04T05:13:51;102086.16;;;3.33;100.00
11856;BME280;5987;53.140;8.904;2023-03-04T05:16:56;102086.94;;;3.28;100.00
11856;BME280;5987;53.140;8.904;2023-03-04T05:20:00;102084.41;;;3.29;100.00
11856;BME280;5987;53.140;8.904;2023-03-04T05:23:05;102083.47;;;3.25;100.00
11856;BME280;5987;53.140;8.904;2023-03-04T05:26:13;102086.94;;;3.26;100.00
11856;BME280;5987;53.140;8.904;2023-03-04T05:29:17;102082.63;;;3.25;100.00
11856;BME280;5987;53.140;8.904;2023-03-04T05:32:22;102083.47;;;3.25;100.00
11856;BME280;5987;53.140;8.904;2023-03-04T05:35:26;102084.34;;;3.26;100.00
11856;BME280;5987;53.140;8.904;2023-03-04T05:38:30;102082.66;;;3.28;100.00
11856;BME280;5987;53.140;8.904;2023-03-04T05:41:34;102093.84;;;3.25;100.00
11856;BME280;5987;53.140;8.904;2023-03-04T05:44:37;102087.00;;;3.31;100.00
11856;BME280;5987;53.140;8.904;2023-03-04T05:47:43;102092.25;;;3.34;100.00
11856;BME280;5987;53.140;8.904;2023-03-04T05:50:46;102075.88;;;3.39;100.00
11856;BME280;5987;53.140;8.904;2023-03-04T05:53:55;102083.69;;;3.41;100.00
11856;BME280;5987;53.140;8.904;2023-03-04T05:56:59;102083.72;;;3.44;100.00
11856;BME280;5987;53.140;8.904;2023-03-04T06:00:05;102088.09;;;3.50;100.00
11856;BME280;5987;53.140;8.904;2023-03-04T06:03:15;102081.22;;;3.52;100.00
11856;BME280;5987;53.140;8.904;2023-03-04T06:06:19;102080.34;;;3.53;100.00
11856;BME280;5987;53.140;8.904;2023-03-04T06:09:22;102091.69;;;3.59;100.00
11856;BME280;5987;53.140;8.904;2023-03-04T06:12:26;102083.06;;;3.62;100.00
11856;BME280;5987;53.140;8.904;2023-03-04T06:15:31;102084.00;;;3.66;100.00
11856;BME280;5987;53.140;8.904;2023-03-04T06:18:37;102081.41;;;3.66;100.00
11856;BME280;5987;53.140;8.904;2023-03-04T06:21:41;102087.47;;;3.68;100.00
11856;BME280;5987;53.140;8.904;2023-03-04T06:24:44;102089.22;;;3.69;100.00
11856;BME280;5987;53.140;8.904;2023-03-04T06:27:48;102099.63;;;3.69;100.00
11856;BME280;5987;53.140;8.904;2023-03-04T06:30:53;102098.72;;;3.67;100.00
11856;BME280;5987;53.140;8.904;2023-03-04T06:33:58;102087.50;;;3.69;100.00
11856;BME280;5987;53.140;8.904;2023-03-04T06:37:02;102091.81;;;3.69;100.00
11856;BME280;5987;53.140;8.904;2023-03-04T06:40:08;102088.34;;;3.70;100.00
11856;BME280;5987;53.140;8.904;2023-03-04T06:43:12;102100.47;;;3.69;100.00
11856;BME280;5987;53.140;8.904;2023-03-04T06:46:16;102097.91;;;3.74;100.00
11856;BME280;5987;53.140;8.904;2023-03-04T06:49:21;102100.53;;;3.74;100.00
11856;BME280;5987;53.140;8.904;2023-03-04T06:52:24;102098.72;;;3.70;100.00
11856;BME280;5987;53.140;8.904;2023-03-04T06:55:28;102104.00;;;3.74;100.00
11856;BME280;5987;53.140;8.904;2023-03-04T06:58:32;102089.28;;;3.76;100.00
11856;BME280;5987;53.140;8.904;2023-03-04T07:01:35;102096.25;;;3.79;100.00
11856;BME280;5987;53.140;8.904;2023-03-04T07:04:40;102102.47;;;3.93;100.00
11856;BME280;5987;53.140;8.904;2023-03-04T07:07:44;102094.66;;;3.92;100.00
11856;BME280;5987;53.140;8.904;2023-03-04T07:10:48;102094.59;;;3.84;100.00
11856;BME280;5987;53.140;8.904;2023-03-04T07:13:52;102092.88;;;3.86;100.00
11856;BME280;5987;53.140;8.904;2023-03-04T07:16:56;102098.09;;;3.89;100.00
11856;BME280;5987;53.140;8.904;2023-03-04T07:20:02;102103.38;;;3.95;100.00
11856;BME280;5987;53.140;8.904;2023-03-04T07:23:05;102094.78;;;4.01;100.00
11856;BME280;5987;53.140;8.904;2023-03-04T07:26:09;102094.78;;;4.03;100.00
11856;BME280;5987;53.140;8.904;2023-03-04T07:29:13;102093.13;;;4.08;100.00
11856;BME280;5987;53.140;8.904;2023-03-04T07:32:17;102104.41;;;4.10;100.00
11856;BME280;5987;53.140;8.904;2023-03-04T07:35:22;102100.13;;;4.15;100.00
11856;BME280;5987;53.140;8.904;2023-03-04T07:38:26;102097.53;;;4.15;100.00
11856;BME280;5987;53.140;8.904;2023-03-04T07:41:30;102097.59;;;4.21;100.00
11856;BME280;5987;53.140;8.904;2023-03-04T07:44:37;102099.34;;;4.22;100.00
11856;BME280;5987;53.140;8.904;2023-03-04T07:47:41;102102.78;;;4.21;100.00
11856;BME280;5987;53.140;8.904;2023-03-04T07:50:46;102107.97;;;4.21;100.00
11856;BME280;5987;53.140;8.904;2023-03-04T07:53:52;102101.03;;;4.20;100.00
11856;BME280;5987;53.140;8.904;2023-03-04T07:56:56;102111.47;;;4.23;100.00
11856;BME280;5987;53.140;8.904;2023-03-04T08:00:00;102099.31;;;4.21;100.00
11856;BME280;5987;53.140;8.904;2023-03-04T08:03:04;102103.69;;;4.23;100.00
11856;BME280;5987;53.140;8.904;2023-03-04T08:06:11;102094.19;;;4.32;100.00
11856;BME280;5987;53.140;8.904;2023-03-04T08:09:15;102100.19;;;4.24;100.00
11856;BME280;5987;53.140;8.904;2023-03-04T08:12:19;102106.31;;;4.28;100.00
11856;BME280;5987;53.140;8.904;2023-03-04T08:15:23;102088.16;;;4.33;100.00
11856;BME280;5987;53.140;8.904;2023-03-04T08:18:29;102094.19;;;4.28;100.00
11856;BME280;5987;53.140;8.904;2023-03-04T08:21:34;102095.09;;;4.31;100.00
11856;BME280;5987;53.140;8.904;2023-03-04T08:24:38;102102.88;;;4.29;100.00
11856;BME280;5987;53.140;8.904;2023-03-04T08:27:41;102093.19;;;4.17;100.00
11856;BME280;5987;53.140;8.904;2023-03-04T08:30:52;102113.63;;;3.83;100.00
11856;BME280;5987;53.140;8.904;2023-03-04T08:33:57;102116.19;;;3.78;100.00
11856;BME280;5987;53.140;8.904;2023-03-04T08:37:03;102116.25;;;3.85;100.00
11856;BME280;5987;53.140;8.904;2023-03-04T08:40:08;102126.75;;;3.92;100.00
11856;BME280;5987;53.140;8.904;2023-03-04T08:43:12;102134.63;;;4.02;100.00
11856;BME280;5987;53.140;8.904;2023-03-04T08:46:15;102115.63;;;4.06;100.00
11856;BME280;5987;53.140;8.904;2023-03-04T08:49:19;102112.22;;;4.11;100.00
11856;BME280;5987;53.140;8.904;2023-03-04T08:52:25;102117.41;;;4.13;100.00
11856;BME280;5987;53.140;8.904;2023-03-04T08:55:28;102115.66;;;4.09;100.00
11856;BME280;5987;53.140;8.904;2023-03-04T08:58:32;102124.34;;;4.11;100.00
11856;BME280;5987;53.140;8.904;2023-03-04T09:01:37;102127.66;;;3.98;100.00
11856;BME280;5987;53.140;8.904;2023-03-04T09:04:40;102134.44;;;3.86;100.00
11856;BME280;5987;53.140;8.904;2023-03-04T09:07:45;102132.75;;;3.88;100.00
11856;BME280;5987;53.140;8.904;2023-03-04T09:10:52;102136.19;;;3.87;100.00
11856;BME280;5987;53.140;8.904;2023-03-04T09:13:56;102136.19;;;3.87;100.00
11856;BME280;5987;53.140;8.904;2023-03-04T09:17:00;102136.25;;;3.93;100.00
11856;BME280;5987;53.140;8.904;2023-03-04T09:20:06;102128.66;;;4.10;100.00
11856;BME280;5987;53.140;8.904;2023-03-04T09:23:13;102132.97;;;4.08;100.00
11856;BME280;5987;53.140;8.904;2023-03-04T09:26:22;102128.72;;;4.14;100.00
11856;BME280;5987;53.140;8.904;2023-03-04T09:29:26;102139.78;;;3.99;100.00
11856;BME280;5987;53.140;8.904;2023-03-04T09:32:30;102136.34;;;4.00;100.00
11856;BME280;5987;53.140;8.904;2023-03-04T09:35:33;102133.84;;;4.10;100.00
11856;BME280;5987;53.140;8.904;2023-03-04T09:38:40;102139.94;;;4.11;100.00
11856;BME280;5987;53.140;8.904;2023-03-04T09:41:46;102152.75;;;3.95;100.00
11856;BME280;5987;53.140;8.904;2023-03-04T09:44:53;102147.38;;;3.80;100.00
11856;BME280;5987;53.140;8.904;2023-03-04T09:47:57;102150.13;;;3.92;100.00
11856;BME280;5987;53.140;8.904;2023-03-04T09:51:18;102149.38;;;4.04;100.00
11856;BME280;5987;53.140;8.904;2023-03-04T09:54:49;102148.81;;;4.32;100.00
11856;BME280;5987;53.140;8.904;2023-03-04T09:58:04;102124.72;;;4.48;100.00
11856;BME280;5987;53.140;8.904;2023-03-04T10:01:19;102133.25;;;4.35;100.00
11856;BME280;5987;53.140;8.904;2023-03-04T10:04:33;102120.47;;;4.61;100.00
11856;BME280;5987;53.140;8.904;2023-03-04T10:07:42;102124.84;;;4.62;100.00
11856;BME280;5987;53.140;8.904;2023-03-04T10:10:53;102130.03;;;4.63;100.00
11856;BME280;5987;53.140;8.904;2023-03-04T10:14:22;102118.91;;;4.78;100.00
11856;BME280;5987;53.140;8.904;2023-03-04T10:17:35;102123.44;;;5.07;100.00
11856;BME280;5987;53.140;8.904;2023-03-04T10:20:52;102118.94;;;4.81;100.00
11856;BME280;5987;53.140;8.904;2023-03-04T10:23:56;102126.63;;;4.69;100.00
11856;BME280;5987;53.140;8.904;2023-03-04T10:27:09;102142.84;;;4.39;100.00
11856;BME280;5987;53.140;8.904;2023-03-04T10:30:29;102154.41;;;3.90;100.00
11856;BME280;5987;53.140;8.904;2023-03-04T10:33:37;102148.06;;;3.68;100.00
11856;BME280;5987;53.140;8.904;2023-03-04T10:36:57;102145.66;;;3.82;100.00
11856;BME280;5987;53.140;8.904;2023-03-04T10:40:02;102158.75;;;3.88;100.00
11856;BME280;5987;53.140;8.904;2023-03-04T10:43:17;102139.78;;;3.99;100.00
11856;BME280;5987;53.140;8.904;2023-03-04T10:46:20;102143.28;;;4.01;100.00
11856;BME280;5987;53.140;8.904;2023-03-04T10:49:28;102144.56;;;4.41;100.00
11856;BME280;5987;53.140;8.904;2023-03-04T10:52:37;102132.56;;;4.54;100.00
11856;BME280;5987;53.140;8.904;2023-03-04T10:55:44;102140.72;;;4.04;100.00
11856;BME280;5987;53.140;8.904;2023-03-04T10:58:49;102151.97;;;4.03;100.00
11856;BME280;5987;53.140;8.904;2023-03-04T11:01:53;102133.00;;;4.13;100.00
11856;BME280;5987;53.140;8.904;2023-03-04T11:05:15;102124.63;;;4.39;100.00
11856;BME280;5987;53.140;8.904;2023-03-04T11:08:22;102139.50;;;4.55;100.00
11856;BME280;5987;53.140;8.904;2023-03-04T11:11:31;102116.88;;;4.43;100.00
11856;BME280;5987;53.140;8.904;2023-03-04T11:14:46;102103.09;;;4.55;100.00
11856;BME280;5987;53.140;8.904;2023-03-04T11:17:55;102119.63;;;4.63;100.00
11856;BME280;5987;53.140;8.904;2023-03-04T11:21:00;102105.16;;;4.96;100.00
11856;BME280;5987;53.140;8.904;2023-03-04T11:24:12;102101.94;;;5.35;100.00
11856;BME280;5987;53.140;8.904;2023-03-04T11:27:43;102094.00;;;5.16;100.00
11856;BME280;5987;53.140;8.904;2023-03-04T11:30:54;102100.25;;;5.44;100.00
11856;BME280;5987;53.140;8.904;2023-03-04T11:34:06;102101.78;;;5.14;100.00
11856;BME280;5987;53.140;8.904;2023-03-04T11:37:23;102100.00;;;5.07;100.00
11856;BME280;5987;53.140;8.904;2023-03-04T11:40:37;102102.47;;;4.81;100.00
11856;BME280;5987;53.140;8.904;2023-03-04T11:43:45;102102.59;;;5.03;100.00
11856;BME280;5987;53.140;8.904;2023-03-04T11:47:21;102097.19;;;4.75;100.00
11856;BME280;5987;53.140;8.904;2023-03-04T11:50:40;102104.84;;;4.58;100.00
11856;BME280;5987;53.140;8.904;2023-03-04T11:54:17;102095.38;;;4.64;100.00
11856;BME280;5987;53.140;8.904;2023-03-04T11:57:35;102091.22;;;4.88;100.00
11856;BME280;5987;53.140;8.904;2023-03-04T12:00:50;102077.31;;;4.83;100.00
11856;BME280;5987;53.140;8.904;2023-03-04T12:04:22;102092.91;;;4.80;100.00
11856;BME280;5987;53.140;8.904;2023-03-04T12:08:06;102105.63;;;4.47;100.00
11856;BME280;5987;53.140;8.904;2023-03-04T12:11:21;102122.88;;;3.61;100.00
11856;BME280;5987;53.140;8.904;2023-03-04T12:14:37;102112.22;;;3.39;100.00
11856;BME280;5987;53.140;8.904;2023-03-04T12:18:01;102103.78;;;3.56;100.00
11856;BME280;5987;53.140;8.904;2023-03-04T12:21:24;102111.03;;;3.85;100.00
11856;BME280;5987;53.140;8.904;2023-03-04T12:25:08;102092.28;;;4.12;100.00
11856;BME280;5987;53.140;8.904;2023-03-04T12:28:33;102086.31;;;4.19;100.00
11856;BME280;5987;53.140;8.904;2023-03-04T12:31:41;102075.94;;;4.24;100.00
11856;BME280;5987;53.140;8.904;2023-03-04T12:35:26;102055.31;;;4.44;100.00
11856;BME280;5987;53.140;8.904;2023-03-04T12:38:57;102071.75;;;4.38;100.00
11856;BME280;5987;53.140;8.904;2023-03-04T12:42:17;102064.16;;;4.64;100.00
11856;BME280;5987;53.140;8.904;2023-03-04T12:45:32;102053.63;;;4.49;100.00
11856;BME280;5987;53.140;8.904;2023-03-04T12:48:51;102048.41;;;4.46;100.00
11856;BME280;5987;53.140;8.904;2023-03-04T12:52:06;102051.84;;;4.42;100.00
11856;BME280;5987;53.140;8.904;2023-03-04T12:55:21;102043.97;;;4.37;100.00
11856;BME280;5987;53.140;8.904;2023-03-04T12:58:29;102044.03;;;4.42;100.00
11856;BME280;5987;53.140;8.904;2023-03-04T13:01:42;102042.28;;;4.38;100.00
11856;BME280;5987;53.140;8.904;2023-03-04T13:05:05;102054.22;;;4.17;100.00
11856;BME280;5987;53.140;8.904;2023-03-04T13:08:25;102043.81;;;4.19;100.00
11856;BME280;5987;53.140;8.904;2023-03-04T13:12:02;102047.34;;;4.24;100.00
11856;BME280;5987;53.140;8.904;2023-03-04T13:15:33;102033.63;;;4.40;100.00
11856;BME280;5987;53.140;8.904;2023-03-04T13:18:37;102046.78;;;4.57;100.00
11856;BME280;5987;53.140;8.904;2023-03-04T13:21:47;102039.84;;;4.59;100.00
11856;BME280;5987;53.140;8.904;2023-03-04T13:24:52;102041.59;;;4.65;100.00
11856;BME280;5987;53.140;8.904;2023-03-04T13:28:24;102046.78;;;4.57;100.00
11856;BME280;5987;53.140;8.904;2023-03-04T13:31:28;102041.56;;;4.57;100.00
11856;BME280;5987;53.140;8.904;2023-03-04T13:34:48;102031.09;;;4.51;100.00
11856;BME280;5987;53.140;8.904;2023-03-04T13:37:58;102032.84;;;4.52;100.00
11856;BME280;5987;53.140;8.904;2023-03-04T13:41:14;102043.25;;;4.52;100.00
11856;BME280;5987;53.140;8.904;2023-03-04T13:44:56;102048.44;;;4.52;100.00
11856;BME280;5987;53.140;8.904;2023-03-04T13:48:02;102053.44;;;4.27;100.00
11856;BME280;5987;53.140;8.904;2023-03-04T13:51:15;102066.19;;;4.01;100.00
11856;BME280;5987;53.140;8.904;2023-03-04T13:54:31;102068.56;;;3.81;100.00
11856;BME280;5987;53.140;8.904;2023-03-04T13:57:36;102072.13;;;3.89;100.00
11856;BME280;5987;53.140;8.904;2023-03-04T14:00:48;102045.41;;;4.03;100.00
11856;BME280;5987;53.140;8.904;2023-03-04T14:03:53;102043.91;;;4.25;100.00
11856;BME280;5987;53.140;8.904;2023-03-04T14:06:58;102040.41;;;4.24;100.00
11856;BME280;5987;53.140;8.904;2023-03-04T14:10:07;102040.59;;;4.44;100.00
11856;BME280;5987;53.140;8.904;2023-03-04T14:13:10;102023.25;;;4.43;100.00
11856;BME280;5987;53.140;8.904;2023-03-04T14:16:20;102035.31;;;4.37;100.00
11856;BME280;5987;53.140;8.904;2023-03-04T14:19:28;102021.50;;;4.42;100.00
11856;BME280;5987;53.140;8.904;2023-03-04T14:22:38;102039.56;;;4.25;100.00
11856;BME280;5987;53.140;8.904;2023-03-04T14:25:42;102037.78;;;4.20;100.00
11856;BME280;5987;53.140;8.904;2023-03-04T14:28:50;102041.06;;;4.02;100.00
11856;BME280;5987;53.140;8.904;2023-03-04T14:31:57;102051.25;;;3.80;100.00
11856;BME280;5987;53.140;8.904;2023-03-04T14:35:03;102076.03;;;3.50;100.00
11856;BME280;5987;53.140;8.904;2023-03-04T14:38:24;102093.00;;;2.70;100.00
11856;BME280;5987;53.140;8.904;2023-03-04T14:41:32;102075.59;;;2.61;100.00
11856;BME280;5987;53.140;8.904;2023-03-04T14:44:41;102067.00;;;2.64;100.00
11856;BME280;5987;53.140;8.904;2023-03-04T14:47:53;102057.78;;;2.83;100.00
11856;BME280;5987;53.140;8.904;2023-03-04T14:51:02;102054.50;;;2.96;100.00
11856;BME280;5987;53.140;8.904;2023-03-04T14:54:21;102060.63;;;3.00;100.00
11856;BME280;5987;53.140;8.904;2023-03-04T14:57:32;102056.53;;;3.17;100.00
11856;BME280;5987;53.140;8.904;2023-03-04T15:00:38;102050.50;;;3.18;100.00
11856;BME280;5987;53.140;8.904;2023-03-04T15:03:52;102045.47;;;3.31;100.00
11856;BME280;5987;53.140;8.904;2023-03-04T15:06:58;102044.63;;;3.33;100.00
11856;BME280;5987;53.140;8.904;2023-03-04T15:10:07;102040.34;;;3.37;100.00
11856;BME280;5987;53.140;8.904;2023-03-04T15:13:14;102042.00;;;3.30;100.00
11856;BME280;5987;53.140;8.904;2023-03-04T15:16:20;102031.59;;;3.29;100.00
11856;BME280;5987;53.140;8.904;2023-03-04T15:19:28;102025.56;;;3.31;100.00
11856;BME280;5987;53.140;8.904;2023-03-04T15:22:33;102025.53;;;3.28;100.00
11856;BME280;5987;53.140;8.904;2023-03-04T15:25:37;102032.50;;;3.29;100.00
11856;BME280;5987;53.140;8.904;2023-03-04T15:28:41;102016.78;;;3.18;100.00
11856;BME280;5987;53.140;8.904;2023-03-04T15:31:46;102052.75;;;2.94;100.00
11856;BME280;5987;53.140;8.904;2023-03-04T15:34:52;102074.84;;;2.68;100.00
11856;BME280;5987;53.140;8.904;2023-03-04T15:37:56;102053.75;;;2.47;100.00
11856;BME280;5987;53.140;8.904;2023-03-04T15:41:00;102044.28;;;2.50;100.00
11856;BME280;5987;53.140;8.904;2023-03-04T15:44:04;102050.44;;;2.55;100.00
11856;BME280;5987;53.140;8.904;2023-03-04T15:47:09;102047.03;;;2.58;100.00
11856;BME280;5987;53.140;8.904;2023-03-04T15:50:18;102036.69;;;2.60;100.00
11856;BME280;5987;53.140;8.904;2023-03-04T15:53:30;102038.41;;;2.59;100.00
11856;BME280;5987;53.140;8.904;2023-03-04T15:56:35;102045.44;;;2.66;100.00
11856;BME280;5987;53.140;8.904;2023-03-04T15:59:39;102043.75;;;2.70;100.00
11856;BME280;5987;53.140;8.904;2023-03-04T16:02:42;102063.59;;;2.68;100.00
11856;BME280;5987;53.140;8.904;2023-03-04T16:05:50;102064.09;;;2.44;100.00
11856;BME280;5987;53.140;8.904;2023-03-04T16:08:55;102061.22;;;2.27;100.00
11856;BME280;5987;53.140;8.904;2023-03-04T16:11:59;102049.00;;;2.19;100.00
11856;BME280;5987;53.140;8.904;2023-03-04T16:15:12;102049.03;;;2.21;100.00
11856;BME280;5987;53.140;8.904;2023-03-04T16:18:16;102054.81;;;2.08;100.00
11856;BME280;5987;53.140;8.904;2023-03-04T16:21:22;102043.72;;;2.16;100.00
11856;BME280;5987;53.140;8.904;2023-03-04T16:24:28;102043.72;;;2.16;100.00
11856;BME280;5987;53.140;8.904;2023-03-04T16:27:35;102035.97;;;2.18;100.00
11856;BME280;5987;53.140;8.904;2023-03-04T16:30:40;102033.63;;;2.32;100.00
11856;BME280;5987;53.140;8.904;2023-03-04T16:33:44;102030.13;;;2.27;100.00
11856;BME280;5987;53.140;8.904;2023-03-04T16:36:49;102023.25;;;2.32;100.00